createdAt,value
2022-12-31T00:00:25.659Z,869.97
2022-12-31T00:03:13.249Z,852.03
2022-12-31T00:05:40.473Z,857.65
2022-12-31T00:08:08.028Z,887.90
2022-12-31T00:10:41.506Z,919.88
2022-12-31T00:13:10.959Z,860.38
2022-12-31T00:15:39.234Z,1001.60
2022-12-31T00:18:07.209Z,997.35
2022-12-31T00:20:34.637Z,866.92
2022-12-31T00:23:02.211Z,946.35
2022-12-31T00:25:29.319Z,859.50
2022-12-31T00:27:56.849Z,821.08
2022-12-31T00:30:24.074Z,853.90
2022-12-31T00:32:51.637Z,910.47
2022-12-31T00:35:18.878Z,824.67
2022-12-31T00:37:46.362Z,717.17
2022-12-31T00:40:14.190Z,872.22
2022-12-31T00:42:41.769Z,861.70
2022-12-31T00:45:09.223Z,669.28
2022-12-31T00:47:36.667Z,581.58
2022-12-31T00:50:04.118Z,569.42
2022-12-31T00:52:31.593Z,606.65
2022-12-31T00:55:00.377Z,517.17
2022-12-31T00:57:27.874Z,552.95
2022-12-31T00:59:55.003Z,480.98
2022-12-31T01:02:22.664Z,489.17
2022-12-31T01:04:49.960Z,487.15
2022-12-31T01:07:17.453Z,520.53
2022-12-31T01:09:44.619Z,535.20
2022-12-31T01:12:12.085Z,494.58
2022-12-31T01:14:39.199Z,448.95
2022-12-31T01:17:06.772Z,439.65
2022-12-31T01:19:33.898Z,445.35
2022-12-31T01:22:01.463Z,486.77
2022-12-31T01:24:28.625Z,462.92
2022-12-31T01:26:58.102Z,475.10
2022-12-31T01:29:26.390Z,455.63
2022-12-31T01:31:53.893Z,466.25
2022-12-31T01:34:21.055Z,473.83
2022-12-31T01:36:48.676Z,461.70
2022-12-31T01:39:15.881Z,439.52
2022-12-31T01:41:45.670Z,445.42
2022-12-31T01:44:12.798Z,452.23
2022-12-31T01:47:02.362Z,446.83
2022-12-31T01:49:44.601Z,463.95
2022-12-31T01:52:14.840Z,435.23
2022-12-31T01:54:47.411Z,404.30
2022-12-31T01:57:16.047Z,410.45
2022-12-31T01:59:45.295Z,406.50
2022-12-31T02:02:14.973Z,386.50
2022-12-31T02:04:42.321Z,332.08
2022-12-31T02:07:11.528Z,378.30
2022-12-31T02:09:42.018Z,383.13
2022-12-31T02:12:11.070Z,357.90
2022-12-31T02:14:42.478Z,377.05
2022-12-31T02:17:42.079Z,340.77
2022-12-31T02:20:24.556Z,323.83
2022-12-31T02:23:29.605Z,310.92
2022-12-31T02:26:05.575Z,331.55
2022-12-31T02:28:42.247Z,351.38
2022-12-31T02:31:17.066Z,348.70
2022-12-31T02:34:07.919Z,342.43
2022-12-31T02:36:40.438Z,327.80
2022-12-31T02:39:10.666Z,345.13
2022-12-31T02:41:53.975Z,338.23
2022-12-31T02:44:36.316Z,334.52
2022-12-31T02:47:06.759Z,348.33
2022-12-31T02:49:43.123Z,321.88
2022-12-31T02:55:14.039Z,302.65
2022-12-31T02:57:51.714Z,267.33
2022-12-31T03:00:37.947Z,289.23
2022-12-31T03:03:07.152Z,321.77
2022-12-31T03:05:40.508Z,305.48
2022-12-31T03:08:08.422Z,306.38
2022-12-31T03:10:38.309Z,297.17
2022-12-31T03:13:05.520Z,303.05
2022-12-31T03:15:34.718Z,295.65
2022-12-31T03:18:03.896Z,286.67
2022-12-31T03:21:02.211Z,272.90
2022-12-31T03:24:05.938Z,278.85
2022-12-31T03:26:33.422Z,273.33
2022-12-31T03:29:00.544Z,269.38
2022-12-31T03:31:28.800Z,272.48
2022-12-31T03:33:56.017Z,275.40
2022-12-31T03:36:23.662Z,261.65
2022-12-31T03:38:52.875Z,276.25
2022-12-31T03:41:23.385Z,249.45
2022-12-31T03:43:50.607Z,254.02
2022-12-31T03:46:18.254Z,264.40
2022-12-31T03:48:45.445Z,272.90
2022-12-31T03:51:13.644Z,267.15
2022-12-31T03:53:40.834Z,268.13
2022-12-31T03:56:08.352Z,285.08
2022-12-31T03:58:35.547Z,296.48
2022-12-31T04:01:03.246Z,249.30
2022-12-31T04:03:30.387Z,271.15
2022-12-31T04:05:57.992Z,213.43
2022-12-31T04:08:25.561Z,245.63
2022-12-31T04:10:53.162Z,210.82
2022-12-31T04:13:20.373Z,221.30
2022-12-31T04:15:51.152Z,223.93
2022-12-31T04:18:18.389Z,220.40
2022-12-31T04:20:45.847Z,212.30
2022-12-31T04:23:13.024Z,202.60
2022-12-31T04:25:40.493Z,216.73
2022-12-31T04:28:07.669Z,221.52
2022-12-31T04:30:35.169Z,196.82
2022-12-31T04:33:04.874Z,212.98
2022-12-31T04:35:32.364Z,217.80
2022-12-31T04:37:59.534Z,197.85
2022-12-31T04:40:26.993Z,373.00
2022-12-31T04:42:54.133Z,222.93
2022-12-31T04:45:21.554Z,240.35
2022-12-31T04:47:48.754Z,244.52
2022-12-31T04:50:16.340Z,233.75
2022-12-31T04:52:43.565Z,244.48
2022-12-31T04:55:11.771Z,222.15
2022-12-31T04:57:39.294Z,228.65
2022-12-31T05:00:08.181Z,217.48
2022-12-31T05:02:35.522Z,212.95
2022-12-31T05:05:03.232Z,193.52
2022-12-31T05:07:30.389Z,209.90
2022-12-31T05:09:57.902Z,208.63
2022-12-31T05:12:25.145Z,255.02
2022-12-31T05:14:52.650Z,212.75
2022-12-31T05:17:20.912Z,201.10
2022-12-31T05:19:48.349Z,186.70
2022-12-31T05:22:30.749Z,207.10
2022-12-31T05:24:59.671Z,194.35
2022-12-31T05:27:28.844Z,212.30
2022-12-31T05:29:55.879Z,201.38
2022-12-31T05:32:23.384Z,204.85
2022-12-31T05:34:50.594Z,216.82
2022-12-31T05:37:18.064Z,227.93
2022-12-31T05:39:45.178Z,217.68
2022-12-31T05:42:12.589Z,239.38
2022-12-31T05:44:39.768Z,236.90
2022-12-31T05:47:07.278Z,237.70
2022-12-31T05:49:34.518Z,256.33
2022-12-31T05:52:02.056Z,270.98
2022-12-31T05:54:29.271Z,258.08
2022-12-31T05:56:57.075Z,273.67
2022-12-31T05:59:24.314Z,278.90
2022-12-31T06:01:52.033Z,277.77
2022-12-31T06:04:19.210Z,221.27
2022-12-31T06:06:46.738Z,188.82
2022-12-31T06:09:18.112Z,210.30
2022-12-31T06:11:47.307Z,191.23
2022-12-31T06:14:14.475Z,194.40
2022-12-31T06:16:42.709Z,192.48
2022-12-31T06:19:10.352Z,198.23
2022-12-31T06:21:38.074Z,191.88
2022-12-31T06:24:05.699Z,180.95
2022-12-31T06:26:33.196Z,170.32
2022-12-31T06:29:00.367Z,135.48
2022-12-31T06:31:28.020Z,140.55
2022-12-31T06:33:55.375Z,136.55
2022-12-31T06:36:22.905Z,143.32
2022-12-31T06:38:50.089Z,143.35
2022-12-31T06:41:18.549Z,150.15
2022-12-31T06:43:46.363Z,179.10
2022-12-31T06:46:16.374Z,306.20
2022-12-31T06:48:45.059Z,253.75
2022-12-31T06:51:18.772Z,236.02
2022-12-31T06:53:47.636Z,186.98
2022-12-31T06:56:18.353Z,163.25
2022-12-31T06:58:46.539Z,141.98
2022-12-31T07:01:40.269Z,116.53
2022-12-31T07:04:54.110Z,162.77
2022-12-31T07:07:33.377Z,151.32
2022-12-31T07:10:06.431Z,151.90
2022-12-31T07:13:03.834Z,147.95
2022-12-31T07:18:15.208Z,238.70
2022-12-31T07:20:42.761Z,270.30
2022-12-31T07:23:10.514Z,268.50
2022-12-31T07:25:44.688Z,288.60
2022-12-31T07:28:22.531Z,534.70
2022-12-31T07:31:23.586Z,191.73
2022-12-31T07:34:04.804Z,206.27
2022-12-31T07:36:49.923Z,335.20
2022-12-31T07:39:28.497Z,239.98
2022-12-31T07:42:11.629Z,198.07
2022-12-31T07:45:18.219Z,245.82
2022-12-31T07:47:46.446Z,260.15
2022-12-31T07:50:16.364Z,214.90
2022-12-31T07:52:44.765Z,188.68
2022-12-31T07:55:12.819Z,153.13
2022-12-31T07:58:01.381Z,136.30
2022-12-31T08:00:30.616Z,161.10
2022-12-31T08:03:09.979Z,166.32
2022-12-31T08:05:53.461Z,104.05
2022-12-31T08:08:35.353Z,197.13
2022-12-31T08:11:25.161Z,106.03
2022-12-31T08:13:56.412Z,92.95
2022-12-31T08:16:24.493Z,95.32
2022-12-31T08:18:51.924Z,108.35
2022-12-31T08:21:35.216Z,136.23
2022-12-31T08:24:24.116Z,109.28
2022-12-31T08:27:13.385Z,118.95
2022-12-31T08:29:44.892Z,134.10
2022-12-31T08:32:22.296Z,97.60
2022-12-31T08:35:15.127Z,155.55
2022-12-31T08:37:51.418Z,161.90
2022-12-31T08:42:58.561Z,178.40
2022-12-31T08:45:28.975Z,166.43
2022-12-31T08:48:08.661Z,152.02
2022-12-31T08:50:36.175Z,85.70
2022-12-31T08:53:04.108Z,83.80
2022-12-31T08:55:31.495Z,86.25
2022-12-31T08:58:29.160Z,121.95
2022-12-31T09:00:59.343Z,115.97
2022-12-31T09:03:42.159Z,100.18
2022-12-31T09:06:29.569Z,68.10
2022-12-31T09:09:09.302Z,112.03
2022-12-31T09:11:48.420Z,108.45
2022-12-31T09:14:47.512Z,80.78
2022-12-31T09:17:39.338Z,88.28
2022-12-31T09:20:14.191Z,163.77
2022-12-31T09:22:41.977Z,129.77
2022-12-31T09:25:17.219Z,77.25
2022-12-31T09:27:56.434Z,142.63
2022-12-31T09:30:26.648Z,119.07
2022-12-31T09:33:36.441Z,104.35
2022-12-31T09:36:07.773Z,62.83
2022-12-31T09:38:40.105Z,148.32
2022-12-31T09:41:16.655Z,90.13
2022-12-31T09:44:02.282Z,65.40
2022-12-31T09:46:48.127Z,80.10
2022-12-31T09:49:36.952Z,52.15
2022-12-31T09:52:19.491Z,39.55
2022-12-31T09:55:02.391Z,63.85
2022-12-31T09:57:58.140Z,45.90
2022-12-31T10:00:43.879Z,48.53
2022-12-31T10:03:32.191Z,86.50
2022-12-31T10:06:27.308Z,60.05
2022-12-31T10:09:35.074Z,56.25
2022-12-31T10:12:39.389Z,78.95
2022-12-31T10:15:19.870Z,73.72
2022-12-31T10:18:23.838Z,73.72
2022-12-31T10:21:01.297Z,76.88
2022-12-31T10:23:46.626Z,73.95
2022-12-31T10:26:21.330Z,68.60
2022-12-31T10:28:56.622Z,72.43
2022-12-31T10:31:37.738Z,95.95
2022-12-31T10:34:14.960Z,132.40
2022-12-31T10:37:09.441Z,128.50
2022-12-31T10:39:45.563Z,122.00
2022-12-31T10:42:25.704Z,91.65
2022-12-31T10:44:58.776Z,87.55
2022-12-31T10:47:26.379Z,74.50
2022-12-31T10:50:22.068Z,60.03
2022-12-31T10:53:08.545Z,69.57
2022-12-31T10:55:57.192Z,65.28
2022-12-31T10:58:51.316Z,53.50
2022-12-31T11:01:30.618Z,76.43
2022-12-31T11:04:34.232Z,74.03
2022-12-31T11:07:32.747Z,78.60
2022-12-31T11:10:21.812Z,77.85
2022-12-31T11:13:07.286Z,72.57
2022-12-31T11:16:16.092Z,57.75
2022-12-31T11:19:04.848Z,102.45
2022-12-31T11:21:50.353Z,97.15
2022-12-31T11:24:47.020Z,105.65
2022-12-31T11:27:46.081Z,105.45
2022-12-31T11:30:34.659Z,105.95
2022-12-31T11:33:08.110Z,109.30
2022-12-31T11:35:48.306Z,19.20
2022-12-31T11:38:24.203Z,9.73
2022-12-31T11:41:39.326Z,11.18
2022-12-31T11:44:24.006Z,4.97
2022-12-31T11:47:01.857Z,7.07
2022-12-31T11:49:47.454Z,2.50
2022-12-31T11:52:26.728Z,4.63
2022-12-31T11:54:54.789Z,2.95
2022-12-31T11:57:27.646Z,3.33
2022-12-31T12:00:02.218Z,3.25
2022-12-31T12:02:46.040Z,3.47
2022-12-31T12:05:17.127Z,2.95
2022-12-31T12:07:44.761Z,5.57
2022-12-31T12:10:46.732Z,4.25
2022-12-31T12:13:34.772Z,4.47
2022-12-31T12:16:06.889Z,5.80
2022-12-31T12:18:37.164Z,3.72
2022-12-31T12:21:25.378Z,1.63
2022-12-31T12:24:07.029Z,2.00
2022-12-31T12:26:43.346Z,5.00
2022-12-31T12:32:07.958Z,3.00
2022-12-31T12:34:46.049Z,8.90
2022-12-31T12:37:37.185Z,3.13
2022-12-31T12:40:29.774Z,2.55
2022-12-31T12:42:59.330Z,2.45
2022-12-31T12:45:30.401Z,5.30
2022-12-31T12:48:02.340Z,4.50
2022-12-31T12:50:42.534Z,2.85
2022-12-31T12:53:16.259Z,5.05
2022-12-31T12:55:55.498Z,3.90
2022-12-31T12:58:48.592Z,2.17
2022-12-31T13:01:27.730Z,2.45
2022-12-31T13:07:23.664Z,4.05
2022-12-31T13:10:06.459Z,2.72
2022-12-31T13:13:21.966Z,3.30
2022-12-31T13:16:08.346Z,2.80
2022-12-31T13:18:46.527Z,3.35
2022-12-31T13:21:32.638Z,8.10
2022-12-31T13:24:23.774Z,8.23
2022-12-31T13:27:13.537Z,5.25
2022-12-31T13:29:43.848Z,5.03
2022-12-31T13:32:19.049Z,4.88
2022-12-31T13:34:50.374Z,2.63
2022-12-31T13:37:37.595Z,1.92
2022-12-31T13:40:21.675Z,1.35
2022-12-31T13:43:04.917Z,2.97
2022-12-31T13:45:41.184Z,4.18
2022-12-31T13:48:16.459Z,2.78
2022-12-31T13:51:08.032Z,2.28
2022-12-31T13:54:00.048Z,1.48
2022-12-31T13:56:31.680Z,3.58
2022-12-31T13:59:12.832Z,2.08
2022-12-31T14:01:59.547Z,2.90
2022-12-31T14:04:52.276Z,3.20
2022-12-31T14:07:55.619Z,3.67
2022-12-31T14:10:49.833Z,3.20
2022-12-31T14:13:43.360Z,3.90
2022-12-31T14:16:21.820Z,4.68
2022-12-31T14:18:51.757Z,7.78
2022-12-31T14:21:27.618Z,4.68
2022-12-31T14:24:16.069Z,5.28
2022-12-31T14:26:56.228Z,3.83
2022-12-31T14:29:48.093Z,23.63
2022-12-31T14:32:43.377Z,38.00
2022-12-31T14:35:38.627Z,23.02
2022-12-31T14:38:06.128Z,5.82
2022-12-31T14:41:10.211Z,6.30
2022-12-31T14:43:54.848Z,6.65
2022-12-31T14:46:33.223Z,6.63
2022-12-31T14:49:22.663Z,10.15
2022-12-31T14:51:49.942Z,9.38
2022-12-31T14:54:29.404Z,9.80
2022-12-31T14:56:56.826Z,8.43
2022-12-31T14:59:27.835Z,11.90
2022-12-31T15:01:56.977Z,13.13
2022-12-31T15:04:44.772Z,9.63
2022-12-31T15:07:30.388Z,11.45
2022-12-31T15:10:04.671Z,9.85
2022-12-31T15:13:03.979Z,10.27
2022-12-31T15:16:28.410Z,12.40
2022-12-31T15:19:19.699Z,18.48
2022-12-31T15:22:31.733Z,25.35
2022-12-31T15:25:01.206Z,99.55
2022-12-31T15:27:37.434Z,101.82
2022-12-31T15:30:07.251Z,181.20
2022-12-31T15:32:41.656Z,164.95
2022-12-31T15:35:21.184Z,117.35
2022-12-31T15:38:32.899Z,88.45
2022-12-31T15:41:01.337Z,84.22
2022-12-31T15:43:43.660Z,80.97
2022-12-31T15:46:19.902Z,59.22
2022-12-31T15:48:55.495Z,36.33
2022-12-31T15:51:36.524Z,30.70
2022-12-31T15:54:07.299Z,31.17
2022-12-31T15:56:39.643Z,84.20
2022-12-31T15:59:14.978Z,61.90
2022-12-31T16:01:43.956Z,39.40
2022-12-31T16:04:23.128Z,27.38
2022-12-31T16:06:51.811Z,18.98
2022-12-31T16:09:29.138Z,19.15
2022-12-31T16:11:58.009Z,38.42
2022-12-31T16:14:46.568Z,25.02
2022-12-31T16:17:36.762Z,22.15
2022-12-31T16:20:25.780Z,17.98
2022-12-31T16:22:57.775Z,64.78
2022-12-31T16:25:31.306Z,26.58
2022-12-31T16:27:59.756Z,21.65
2022-12-31T16:30:32.374Z,18.95
2022-12-31T16:33:04.366Z,19.88
2022-12-31T16:35:34.261Z,24.10
2022-12-31T16:38:19.769Z,24.77
2022-12-31T16:41:21.029Z,30.98
2022-12-31T16:43:49.833Z,95.35
2022-12-31T16:46:31.317Z,101.50
2022-12-31T16:49:14.169Z,157.40
2022-12-31T16:51:42.273Z,245.07
2022-12-31T16:54:20.937Z,267.95
2022-12-31T16:56:49.758Z,75.32
2022-12-31T16:59:24.264Z,77.90
2022-12-31T17:01:56.215Z,69.63
2022-12-31T17:04:24.755Z,78.38
2022-12-31T17:06:52.289Z,83.88
2022-12-31T17:09:22.054Z,92.18
2022-12-31T17:12:10.294Z,80.57
2022-12-31T17:14:49.636Z,98.32
2022-12-31T17:17:27.973Z,118.75
2022-12-31T17:20:00.548Z,119.07
2022-12-31T17:22:37.193Z,219.82
2022-12-31T17:25:20.649Z,305.35
2022-12-31T17:28:02.769Z,151.38
2022-12-31T17:30:30.036Z,168.02
2022-12-31T17:33:12.833Z,93.60
2022-12-31T17:35:42.633Z,115.65
2022-12-31T17:38:22.184Z,117.60
2022-12-31T17:41:06.683Z,113.63
2022-12-31T17:43:36.671Z,289.15
2022-12-31T17:46:11.086Z,217.38
2022-12-31T17:48:39.079Z,128.15
2022-12-31T17:51:06.600Z,102.95
2022-12-31T17:53:34.337Z,94.32
2022-12-31T17:56:04.632Z,109.60
2022-12-31T17:58:44.003Z,48.58
2022-12-31T18:01:15.615Z,83.85
2022-12-31T18:03:44.139Z,77.05
2022-12-31T18:06:16.521Z,79.15
2022-12-31T18:08:45.059Z,89.85
2022-12-31T18:11:17.194Z,103.75
2022-12-31T18:13:45.095Z,125.35
2022-12-31T18:16:12.643Z,132.00
2022-12-31T18:18:42.131Z,83.10
2022-12-31T18:21:17.966Z,72.43
2022-12-31T18:23:47.399Z,56.30
2022-12-31T18:26:20.188Z,43.35
2022-12-31T18:28:49.223Z,54.72
2022-12-31T18:31:21.990Z,119.68
2022-12-31T18:33:50.941Z,159.32
2022-12-31T18:36:20.494Z,149.05
2022-12-31T18:38:48.765Z,36.00
2022-12-31T18:41:27.147Z,169.98
2022-12-31T18:43:55.579Z,65.63
2022-12-31T18:46:25.436Z,92.38
2022-12-31T18:48:53.117Z,71.13
2022-12-31T18:51:31.032Z,75.88
2022-12-31T18:54:03.898Z,102.15
2022-12-31T18:56:31.640Z,174.80
2022-12-31T18:58:59.978Z,258.25
2022-12-31T19:01:30.505Z,134.93
2022-12-31T19:04:04.121Z,89.32
2022-12-31T19:06:31.778Z,221.65
2022-12-31T19:09:01.117Z,53.97
2022-12-31T19:11:29.169Z,76.40
2022-12-31T19:13:56.322Z,163.18
2022-12-31T19:16:23.929Z,50.83
2022-12-31T19:18:51.227Z,48.35
2022-12-31T19:21:25.777Z,75.18
2022-12-31T19:23:54.932Z,52.77
2022-12-31T19:26:23.292Z,41.67
2022-12-31T19:28:52.093Z,26.17
2022-12-31T19:31:19.744Z,58.67
2022-12-31T19:33:47.266Z,54.38
2022-12-31T19:36:20.686Z,46.35
2022-12-31T19:38:47.999Z,36.08
2022-12-31T19:41:21.603Z,44.22
2022-12-31T19:43:49.690Z,14.73
2022-12-31T19:46:18.682Z,33.28
2022-12-31T19:48:46.421Z,20.33
2022-12-31T19:51:21.746Z,200.45
2022-12-31T19:53:50.292Z,252.38
2022-12-31T19:56:20.430Z,279.48
2022-12-31T19:58:47.778Z,263.05
2022-12-31T20:01:23.747Z,259.45
2022-12-31T20:03:51.939Z,224.85
2022-12-31T20:06:19.617Z,215.57
2022-12-31T20:08:46.978Z,225.35
2022-12-31T20:11:17.576Z,217.40
2022-12-31T20:13:46.113Z,186.38
2022-12-31T20:16:16.095Z,179.30
2022-12-31T20:18:44.974Z,212.65
2022-12-31T20:21:15.310Z,247.77
2022-12-31T20:23:42.464Z,233.05
2022-12-31T20:26:10.733Z,206.35
2022-12-31T20:28:38.253Z,211.55
2022-12-31T20:31:11.469Z,216.90
2022-12-31T20:33:38.944Z,179.20
2022-12-31T20:36:08.880Z,220.30
2022-12-31T20:38:36.128Z,262.77
2022-12-31T20:41:09.112Z,212.90
2022-12-31T20:43:37.113Z,302.55
2022-12-31T20:46:15.759Z,287.92
2022-12-31T20:48:45.082Z,276.98
2022-12-31T20:51:13.671Z,300.63
2022-12-31T20:53:46.850Z,396.80
2022-12-31T20:56:14.571Z,584.20
2022-12-31T20:58:44.476Z,509.92
2022-12-31T21:01:12.785Z,445.67
2022-12-31T21:06:30.941Z,680.72
2022-12-31T21:09:00.194Z,542.30
2022-12-31T21:11:46.209Z,569.28
2022-12-31T21:14:13.507Z,660.10
2022-12-31T21:16:41.083Z,457.83
2022-12-31T21:19:09.122Z,380.00
2022-12-31T21:21:36.977Z,380.88
2022-12-31T21:24:04.573Z,386.10
2022-12-31T21:26:32.357Z,457.70
2022-12-31T21:28:59.679Z,426.17
2022-12-31T21:31:27.365Z,411.50
2022-12-31T21:33:55.235Z,346.13
2022-12-31T21:36:22.973Z,514.25
2022-12-31T21:38:50.211Z,484.23
2022-12-31T21:41:36.205Z,488.92
2022-12-31T21:44:03.959Z,345.50
2022-12-31T21:46:31.615Z,276.63
2022-12-31T21:49:00.638Z,219.52
2022-12-31T21:51:31.370Z,189.32
2022-12-31T21:53:58.656Z,289.15
2022-12-31T21:56:26.196Z,220.35
2022-12-31T21:59:14.558Z,192.80
2022-12-31T22:02:01.429Z,190.02
2022-12-31T22:07:16.559Z,319.63
2022-12-31T22:09:43.732Z,294.48
2022-12-31T22:12:11.748Z,286.95
2022-12-31T22:14:38.990Z,313.52
2022-12-31T22:17:26.744Z,326.55
2022-12-31T22:20:25.115Z,278.35
2022-12-31T22:22:42.193Z,310.30
2022-12-31T22:25:10.038Z,326.98
2022-12-31T22:27:37.636Z,310.50
2022-12-31T22:30:06.538Z,314.48
2022-12-31T22:32:34.192Z,311.17
2022-12-31T22:35:01.382Z,333.73
2022-12-31T22:37:55.659Z,346.98
2022-12-31T22:40:17.343Z,303.73
2022-12-31T22:42:45.409Z,300.08
2022-12-31T22:45:12.627Z,220.82
2022-12-31T22:47:40.267Z,241.32
2022-12-31T22:50:08.103Z,199.57
2022-12-31T22:52:35.665Z,207.05
2022-12-31T22:55:02.988Z,227.20
2022-12-31T22:57:30.494Z,255.95
2022-12-31T22:59:57.701Z,261.85
2022-12-31T23:02:25.428Z,291.90
2022-12-31T23:04:52.868Z,295.27
2022-12-31T23:07:40.528Z,410.85
2022-12-31T23:10:28.098Z,445.83
2022-12-31T23:12:55.823Z,424.88
2022-12-31T23:15:41.555Z,484.98
2022-12-31T23:18:28.114Z,526.92
2022-12-31T23:21:17.763Z,533.38
2022-12-31T23:26:12.659Z,464.45
2022-12-31T23:28:42.003Z,437.42
2022-12-31T23:31:09.321Z,463.83
2022-12-31T23:33:37.037Z,454.98
2022-12-31T23:36:07.798Z,344.58
2022-12-31T23:38:36.358Z,353.40
2022-12-31T23:41:18.767Z,315.85
2022-12-31T23:43:46.533Z,295.67
2022-12-31T23:46:14.725Z,362.67
2022-12-31T23:48:42.632Z,344.73
2022-12-31T23:51:10.269Z,354.33
2022-12-31T23:53:39.284Z,367.08
2022-12-31T23:56:20.912Z,375.23
2022-12-31T23:58:56.395Z,360.85
